Time;durP1;ratioP1;P1;durP2;ratioP2;P2;SDS_P1;SDS_P2;PMS_P1;PMS_P2;Temp;Humidity;BMP_temperature;BMP_pressure;BME280_temperature;BME280_humidity;BME280_pressure;Samples;Min_cycle;Max_cycle;Signal;HPM_P1;HPM_P2
2021/07/06 00:00:42;;;;;;;14.82;7.55;;;;;;;16.59;98.66;100555.31;4953398;28;20094;-71
2021/07/06 00:03:10;;;;;;;12.43;7.47;;;;;;;16.55;98.24;100557.34;4957772;28;20247;-70
2021/07/06 00:05:38;;;;;;;10.73;6.78;;;;;;;16.57;97.52;100560.78;4955048;28;20113;-70
2021/07/06 00:08:08;;;;;;;12.98;8.10;;;;;;;16.47;98.80;100564.16;4956720;28;20438;-69
2021/07/06 00:10:36;;;;;;;11.48;7.20;;;;;;;16.44;98.98;100540.97;4953397;28;20065;-69
2021/07/06 00:13:04;;;;;;;12.73;7.93;;;;;;;16.46;99.32;100554.34;4960736;28;20089;-69
2021/07/06 00:15:34;;;;;;;12.73;8.00;;;;;;;16.40;98.94;100540.28;4960718;28;20567;-69
2021/07/06 00:18:03;;;;;;;11.13;6.70;;;;;;;16.34;99.10;100532.56;4959014;28;20103;-70
2021/07/06 00:20:31;;;;;;;9.68;5.50;;;;;;;16.36;98.74;100536.06;4956359;28;20546;-71
2021/07/06 00:23:03;;;;;;;9.90;4.97;;;;;;;16.35;98.20;100557.69;4957384;28;20361;-70
2021/07/06 00:25:33;;;;;;;8.57;5.30;;;;;;;16.28;98.29;100548.22;4952840;28;20073;-70
2021/07/06 00:28:01;;;;;;;8.38;5.60;;;;;;;16.25;98.64;100546.59;4957499;28;20094;-70
2021/07/06 00:30:29;;;;;;;12.50;5.72;;;;;;;16.24;98.56;100543.06;4954098;28;20062;-70
2021/07/06 00:32:57;;;;;;;9.07;5.70;;;;;;;16.25;99.17;100539.38;4957716;28;20097;-70
2021/07/06 00:35:26;;;;;;;9.85;5.72;;;;;;;16.24;99.59;100539.47;4954142;28;20073;-71
2021/07/06 00:37:53;;;;;;;10.75;5.90;;;;;;;16.27;99.55;100544.69;4956405;28;20511;-72
2021/07/06 00:40:21;;;;;;;11.60;7.38;;;;;;;16.30;100.00;100530.19;4956062;28;20062;-73
2021/07/06 00:42:58;;;;;;;11.13;7.40;;;;;;;16.29;100.00;100515.84;4955852;28;20065;-72
2021/07/06 00:45:27;;;;;;;14.98;8.70;;;;;;;16.27;100.00;100514.22;4956905;28;20066;-72
2021/07/06 00:47:56;;;;;;;13.45;8.15;;;;;;;16.24;100.00;100510.75;4954818;28;20105;-72
2021/07/06 00:50:25;;;;;;;11.65;8.10;;;;;;;16.27;100.00;100509.69;4956504;28;20152;-72
2021/07/06 00:52:53;;;;;;;12.68;8.02;;;;;;;16.29;100.00;100513.13;4956645;28;20369;-73
2021/07/06 00:55:21;;;;;;;12.88;7.93;;;;;;;16.32;100.00;100502.19;4955154;28;20145;-73
2021/07/06 00:57:50;;;;;;;13.13;8.07;;;;;;;16.31;100.00;100511.25;4954206;28;20120;-72
2021/07/06 01:00:20;;;;;;;13.18;7.97;;;;;;;16.30;100.00;100497.88;4955984;28;20050;-72
2021/07/06 01:02:50;;;;;;;12.20;7.53;;;;;;;16.30;100.00;100485.28;4951892;28;20406;-72
2021/07/06 01:05:20;;;;;;;13.45;7.43;;;;;;;16.28;100.00;100476.44;4956132;28;20062;-72
2021/07/06 01:07:49;;;;;;;12.25;7.47;;;;;;;16.24;100.00;100485.63;4952064;28;20341;-71
2021/07/06 01:10:18;;;;;;;14.20;8.45;;;;;;;16.24;100.00;100475.75;4959156;28;20540;-71
2021/07/06 01:12:47;;;;;;;13.63;8.10;;;;;;;16.25;100.00;100469.38;4959038;28;20098;-72
2021/07/06 01:15:18;;;;;;;11.80;7.13;;;;;;;16.28;100.00;100464.78;4958757;28;20070;-71
2021/07/06 01:17:56;;;;;;;13.13;7.65;;;;;;;16.33;100.00;100460.84;4956718;28;20086;-72
2021/07/06 01:20:24;;;;;;;14.57;7.55;;;;;;;16.28;100.00;100448.63;4961337;28;20116;-71
2021/07/06 01:22:54;;;;;;;12.43;7.32;;;;;;;16.33;100.00;100447.41;4958208;28;20228;-71
2021/07/06 01:25:21;;;;;;;13.48;8.07;;;;;;;16.32;100.00;100442.09;4962088;28;20113;-71
2021/07/06 01:27:49;;;;;;;15.20;8.15;;;;;;;16.31;100.00;100434.97;4956017;28;20077;-70
2021/07/06 01:30:19;;;;;;;12.45;7.90;;;;;;;16.34;100.00;100427.56;4957899;28;20149;-71
2021/07/06 01:32:49;;;;;;;13.63;7.75;;;;;;;16.33;100.00;100424.97;4956793;28;20174;-71
2021/07/06 01:35:19;;;;;;;14.10;8.15;;;;;;;16.31;100.00;100414.31;4958758;28;20644;-72
2021/07/06 01:37:48;;;;;;;13.50;6.97;;;;;;;16.32;100.00;100410.66;4958648;28;20124;-72
2021/07/06 01:40:20;;;;;;;12.52;7.45;;;;;;;16.32;100.00;100405.28;4957874;28;20128;-72
2021/07/06 01:42:49;;;;;;;11.18;6.80;;;;;;;16.33;100.00;100398.94;4957648;28;20051;-72
2021/07/06 01:45:19;;;;;;;11.85;7.07;;;;;;;16.31;100.00;100400.88;4958882;28;20050;-72
2021/07/06 01:47:49;;;;;;;12.20;6.55;;;;;;;16.31;100.00;100399.97;4959273;28;20128;-72
2021/07/06 01:50:18;;;;;;;12.18;7.00;;;;;;;16.35;100.00;100394.31;4959692;28;20066;-73
2021/07/06 01:52:48;;;;;;;13.10;7.18;;;;;;;16.29;100.00;100383.06;4959645;28;20058;-74
2021/07/06 01:55:19;;;;;;;10.00;6.05;;;;;;;16.30;100.00;100403.66;4961106;28;20317;-73
2021/07/06 01:57:49;;;;;;;10.98;6.40;;;;;;;16.28;100.00;100403.75;4960896;28;20169;-72
2021/07/06 02:00:19;;;;;;;11.38;6.50;;;;;;;16.27;100.00;100385.00;4956876;28;20252;-72
2021/07/06 02:02:49;;;;;;;12.90;6.55;;;;;;;16.25;100.00;100364.41;4962523;28;21620;-73
2021/07/06 02:05:37;;;;;;;10.32;5.60;;;;;;;16.27;100.00;100369.69;4955184;28;20077;-72
2021/07/06 02:08:07;;;;;;;10.43;5.70;;;;;;;16.29;100.00;100351.63;4960944;28;20070;-72
2021/07/06 02:10:37;;;;;;;10.00;5.45;;;;;;;16.29;100.00;100354.31;4953958;28;20097;-72
2021/07/06 02:13:08;;;;;;;10.77;5.75;;;;;;;16.31;100.00;100344.34;4960647;28;20088;-72
2021/07/06 02:15:36;;;;;;;10.60;6.00;;;;;;;16.30;100.00;100336.34;4957311;28;20066;-71
2021/07/06 02:18:05;;;;;;;9.60;4.88;;;;;;;16.31;100.00;100333.56;4958768;28;20069;-72
2021/07/06 02:20:32;;;;;;;8.30;4.70;;;;;;;16.29;100.00;100329.22;4957690;28;20102;-71
2021/07/06 02:23:06;;;;;;;8.75;5.13;;;;;;;16.30;100.00;100334.50;4957984;28;20085;-71
2021/07/06 02:25:33;;;;;;;9.80;5.38;;;;;;;16.24;100.00;100326.81;4957994;28;20109;-71
2021/07/06 02:28:03;;;;;;;10.40;5.40;;;;;;;16.28;100.00;100317.59;4957912;28;20121;-71
2021/07/06 02:30:31;;;;;;;7.20;4.30;;;;;;;16.24;100.00;100307.97;4958034;28;20070;-70
2021/07/06 02:32:59;;;;;;;8.07;4.43;;;;;;;16.33;100.00;100301.13;4959284;28;20527;-72
2021/07/06 02:35:27;;;;;;;8.30;4.10;;;;;;;16.35;100.00;100286.63;4955745;28;20098;-70
2021/07/06 02:37:56;;;;;;;8.02;4.32;;;;;;;16.28;100.00;100297.88;4959411;28;20062;-69
2021/07/06 02:40:25;;;;;;;7.57;4.28;;;;;;;16.28;100.00;100281.72;4958683;28;20113;-70
2021/07/06 02:42:53;;;;;;;7.80;4.35;;;;;;;16.26;100.00;100279.16;4957795;28;20572;-70
2021/07/06 02:45:22;;;;;;;6.53;3.90;;;;;;;16.28;100.00;100277.22;4958101;28;20630;-70
2021/07/06 02:47:50;;;;;;;8.98;4.38;;;;;;;16.35;100.00;100285.78;4956785;28;20580;-73
2021/07/06 02:50:20;;;;;;;7.18;3.85;;;;;;;16.38;100.00;100290.97;4959780;28;20070;-72
2021/07/06 02:52:48;;;;;;;9.27;4.07;;;;;;;16.33;100.00;100288.56;4957784;28;21577;-72
2021/07/06 02:55:17;;;;;;;6.47;3.90;;;;;;;16.31;100.00;100277.03;4959661;28;20147;-72
2021/07/06 02:57:45;;;;;;;7.60;3.90;;;;;;;16.28;100.00;100271.84;4958644;28;20070;-73
2021/07/06 03:00:16;;;;;;;7.13;3.80;;;;;;;16.28;100.00;100269.16;4954106;28;20070;-72
2021/07/06 03:02:47;;;;;;;8.90;4.22;;;;;;;16.28;100.00;100271.84;4955663;28;20176;-72
2021/07/06 03:05:17;;;;;;;7.85;4.40;;;;;;;16.24;100.00;100276.56;4957210;28;20069;-73
2021/07/06 03:07:46;;;;;;;7.93;4.07;;;;;;;16.21;100.00;100283.97;4954090;28;20078;-70
2021/07/06 03:10:18;;;;;;;7.47;3.90;;;;;;;16.18;100.00;100278.78;4961106;28;20066;-70
2021/07/06 03:12:46;;;;;;;6.50;3.40;;;;;;;16.21;100.00;100273.22;4955622;28;20066;-71
2021/07/06 03:15:16;;;;;;;7.28;3.95;;;;;;;16.23;100.00;100276.66;4958254;28;20402;-71
2021/07/06 03:17:46;;;;;;;6.85;3.88;;;;;;;16.25;100.00;100254.03;4954747;28;20042;-72
2021/07/06 03:20:17;;;;;;;8.18;3.70;;;;;;;16.23;100.00;100253.28;4958274;28;20066;-72
2021/07/06 03:22:46;;;;;;;7.85;3.88;;;;;;;16.23;100.00;100255.97;4956363;28;20070;-71
2021/07/06 03:25:16;;;;;;;7.75;3.97;;;;;;;16.24;100.00;100263.09;4957562;28;20097;-72
2021/07/06 03:27:44;;;;;;;7.20;3.80;;;;;;;16.29;100.00;100227.78;4956132;28;20066;-71
2021/07/06 03:30:15;;;;;;;8.13;4.03;;;;;;;16.27;100.00;100245.03;4958004;28;20113;-73
2021/07/06 03:32:42;;;;;;;7.93;4.28;;;;;;;16.23;100.00;100239.81;4956060;28;20077;-72
2021/07/06 03:35:12;;;;;;;10.25;3.97;;;;;;;16.24;100.00;100236.19;4961645;28;20428;-71
2021/07/06 03:37:41;;;;;;;7.82;3.63;;;;;;;16.32;100.00;100243.75;4956525;28;20381;-71
2021/07/06 03:40:11;;;;;;;6.20;3.53;;;;;;;16.33;100.00;100245.47;4961476;28;20070;-71
2021/07/06 03:42:39;;;;;;;7.35;3.75;;;;;;;16.41;100.00;100234.19;4957133;28;20073;-71
2021/07/06 03:45:09;;;;;;;8.70;3.60;;;;;;;16.39;100.00;100241.50;4954355;28;20070;-71
2021/07/06 03:47:38;;;;;;;6.88;3.78;;;;;;;16.38;100.00;100231.72;4959393;28;20070;-71
2021/07/06 03:50:10;;;;;;;8.38;4.07;;;;;;;16.44;100.00;100231.31;4953597;28;21598;-73
2021/07/06 03:52:39;;;;;;;6.78;3.38;;;;;;;16.47;100.00;100236.50;4958249;28;20116;-73
2021/07/06 03:55:08;;;;;;;7.38;3.35;;;;;;;16.49;100.00;100229.16;4953022;28;20144;-72
2021/07/06 03:57:36;;;;;;;7.07;4.10;;;;;;;16.44;100.00;100229.47;4957741;28;20148;-70
2021/07/06 04:00:08;;;;;;;8.43;4.28;;;;;;;16.46;100.00;100232.06;4954072;28;20074;-72
2021/07/06 04:02:36;;;;;;;7.68;3.60;;;;;;;16.45;100.00;100227.66;4955890;28;20590;-72
2021/07/06 04:05:06;;;;;;;6.35;3.55;;;;;;;16.43;100.00;100235.84;4955710;28;20062;-73
2021/07/06 04:07:33;;;;;;;7.55;3.67;;;;;;;16.43;100.00;100251.13;4956676;28;20066;-73
2021/07/06 04:10:04;;;;;;;8.63;3.70;;;;;;;16.47;100.00;100246.41;4955366;28;20081;-72
2021/07/06 04:12:31;;;;;;;6.40;3.53;;;;;;;16.48;100.00;100245.44;4959824;28;20062;-72
2021/07/06 04:14:59;;;;;;;6.60;3.78;;;;;;;16.48;100.00;100240.03;4953496;28;20112;-72
2021/07/06 04:17:27;;;;;;;7.38;3.85;;;;;;;16.54;100.00;100255.81;4959101;28;20392;-72
2021/07/06 04:19:56;;;;;;;5.55;3.45;;;;;;;16.49;100.00;100256.09;4954336;28;20181;-72
2021/07/06 04:22:24;;;;;;;7.90;3.83;;;;;;;16.48;100.00;100257.09;4955783;28;20070;-72
2021/07/06 04:24:53;;;;;;;7.57;4.15;;;;;;;16.51;100.00;100264.06;4956825;28;20629;-72
2021/07/06 04:27:22;;;;;;;6.55;3.60;;;;;;;16.53;100.00;100254.06;4953938;28;20086;-73
2021/07/06 04:29:52;;;;;;;7.65;3.53;;;;;;;16.60;100.00;100252.69;4954588;28;20062;-72
2021/07/06 04:32:20;;;;;;;8.25;4.35;;;;;;;16.58;100.00;100250.13;4958067;28;20093;-73
2021/07/06 04:34:50;;;;;;;9.50;3.90;;;;;;;16.61;100.00;100265.19;4954600;28;20054;-73
2021/07/06 04:37:18;;;;;;;11.52;3.63;;;;;;;16.58;100.00;100258.19;4955123;28;20070;-72
2021/07/06 04:39:46;;;;;;;9.73;4.38;;;;;;;16.58;100.00;100252.81;4955512;28;20096;-70
2021/07/06 04:42:16;;;;;;;4.93;3.30;;;;;;;16.67;100.00;100239.66;4955357;28;20070;-71
2021/07/06 04:44:45;;;;;;;8.40;4.03;;;;;;;16.69;100.00;100267.41;4956257;28;20070;-72
2021/07/06 04:47:13;;;;;;;7.35;3.75;;;;;;;16.68;100.00;100255.72;4953148;28;20066;-69
2021/07/06 04:49:41;;;;;;;6.50;3.70;;;;;;;16.72;99.90;100256.38;4957799;28;20065;-69
2021/07/06 04:52:08;;;;;;;7.78;3.88;;;;;;;16.75;99.82;100253.50;4952818;28;20148;-68
2021/07/06 04:54:36;;;;;;;8.57;4.20;;;;;;;16.80;99.11;100264.81;4960411;28;20248;-67
2021/07/06 04:57:05;;;;;;;6.97;3.75;;;;;;;16.76;100.00;100274.09;4950209;28;20149;-68
2021/07/06 04:59:32;;;;;;;7.13;3.75;;;;;;;16.76;99.98;100277.63;4958085;28;20074;-68
2021/07/06 05:02:02;;;;;;;6.75;3.90;;;;;;;16.77;100.00;100273.09;4953239;28;20062;-67
2021/07/06 05:04:30;;;;;;;8.00;4.00;;;;;;;16.79;99.88;100272.06;4957379;28;20437;-68
2021/07/06 05:06:57;;;;;;;7.95;4.28;;;;;;;16.84;99.35;100262.78;4954567;28;20054;-69
2021/07/06 05:09:25;;;;;;;7.63;3.83;;;;;;;16.86;99.75;100266.31;4955494;28;20125;-69
2021/07/06 05:11:53;;;;;;;6.82;3.47;;;;;;;16.89;99.51;100264.25;4957050;28;20053;-68
2021/07/06 05:14:21;;;;;;;7.47;3.70;;;;;;;16.91;99.64;100273.09;4956486;28;20101;-70
2021/07/06 05:16:49;;;;;;;7.20;3.58;;;;;;;16.95;98.98;100269.22;4958465;28;20177;-68
2021/07/06 05:19:18;;;;;;;8.85;4.45;;;;;;;16.99;98.44;100259.09;4958254;28;20062;-68
2021/07/06 05:21:46;;;;;;;7.88;3.92;;;;;;;17.04;98.50;100265.03;4956403;28;20117;-69
2021/07/06 05:24:14;;;;;;;7.18;3.78;;;;;;;17.06;98.33;100263.09;4956592;28;20148;-69
2021/07/06 05:26:41;;;;;;;7.80;3.67;;;;;;;17.13;97.79;100252.78;4953834;28;20050;-69
2021/07/06 05:29:09;;;;;;;8.00;3.55;;;;;;;17.15;97.25;100250.84;4954564;28;20288;-69
2021/07/06 05:31:37;;;;;;;7.40;4.00;;;;;;;17.21;97.16;100261.16;4957643;28;20062;-68
2021/07/06 05:34:05;;;;;;;7.38;3.65;;;;;;;17.29;96.12;100257.97;4952766;28;20417;-69
2021/07/06 05:36:34;;;;;;;5.82;3.60;;;;;;;17.35;95.34;100260.25;4958065;28;20066;-69
2021/07/06 05:39:02;;;;;;;8.75;3.72;;;;;;;17.40;94.98;100254.50;4952382;28;20097;-69
2021/07/06 05:41:29;;;;;;;7.82;3.38;;;;;;;17.39;94.71;100253.66;4956628;28;20102;-69
2021/07/06 05:43:57;;;;;;;11.20;3.22;;;;;;;17.45;93.45;100257.75;4954546;28;20142;-69
2021/07/06 05:46:28;;;;;;;6.43;3.17;;;;;;;17.40;93.46;100255.38;4955523;28;20111;-69
2021/07/06 05:48:56;;;;;;;6.85;2.65;;;;;;;17.40;90.57;100251.81;4954498;28;20098;-69
2021/07/06 05:51:23;;;;;;;6.85;3.13;;;;;;;17.42;88.93;100255.25;4956309;28;20117;-70
2021/07/06 05:53:52;;;;;;;7.85;3.20;;;;;;;17.42;88.15;100245.34;4954917;28;20062;-70
2021/07/06 05:56:21;;;;;;;3.90;2.70;;;;;;;17.44;88.00;100247.94;4959410;28;20485;-68
2021/07/06 05:58:49;;;;;;;6.45;2.70;;;;;;;17.41;86.18;100253.53;4957136;28;20046;-69
2021/07/06 06:01:18;;;;;;;8.15;3.17;;;;;;;17.38;84.63;100249.22;4961132;28;20066;-69
2021/07/06 06:03:45;;;;;;;7.22;2.65;;;;;;;17.39;85.49;100248.25;4957043;28;20277;-70
2021/07/06 06:06:13;;;;;;;6.22;2.72;;;;;;;17.41;84.56;100254.41;4958188;28;20094;-70
2021/07/06 06:08:42;;;;;;;4.63;2.70;;;;;;;17.40;83.55;100249.13;4957593;28;20089;-69
2021/07/06 06:11:11;;;;;;;4.63;2.65;;;;;;;17.38;83.79;100249.22;4959884;28;20062;-70
2021/07/06 06:13:40;;;;;;;5.28;2.58;;;;;;;17.38;83.58;100256.44;4957790;28;20480;-68
2021/07/06 06:16:08;;;;;;;7.10;2.70;;;;;;;17.34;84.33;100256.66;4956105;28;20066;-69
2021/07/06 06:18:36;;;;;;;7.97;3.05;;;;;;;17.34;84.83;100253.97;4959917;28;20061;-68
2021/07/06 06:21:04;;;;;;;7.03;2.60;;;;;;;17.38;84.80;100251.91;4956656;28;20062;-69
2021/07/06 06:23:32;;;;;;;7.22;3.30;;;;;;;17.37;84.52;100247.50;4960399;28;20073;-69
2021/07/06 06:26:00;;;;;;;5.90;2.92;;;;;;;17.40;83.78;100255.38;4954216;28;20167;-69
2021/07/06 06:28:29;;;;;;;5.35;2.50;;;;;;;17.42;83.15;100256.13;4959053;28;20672;-71
2021/07/06 06:30:57;;;;;;;6.50;2.72;;;;;;;17.47;83.63;100263.88;4955199;28;20188;-69
2021/07/06 06:33:25;;;;;;;6.85;2.90;;;;;;;17.45;83.70;100249.66;4954867;28;20093;-69
2021/07/06 06:35:53;;;;;;;6.57;3.17;;;;;;;17.49;83.96;100254.72;4954663;28;20365;-69
2021/07/06 06:38:21;;;;;;;4.93;2.75;;;;;;;17.48;84.41;100261.09;4958125;28;20069;-69
2021/07/06 06:40:49;;;;;;;6.70;2.70;;;;;;;17.49;84.69;100262.81;4954152;28;20149;-69
2021/07/06 06:43:16;;;;;;;4.15;2.38;;;;;;;17.59;83.21;100259.47;4957143;28;20101;-69
2021/07/06 06:45:47;;;;;;;8.60;3.00;;;;;;;17.55;83.70;100259.72;4953055;28;20077;-70
2021/07/06 06:48:15;;;;;;;8.65;3.25;;;;;;;17.51;83.59;100279.75;4958822;28;21256;-68
2021/07/06 06:50:42;;;;;;;8.23;2.80;;;;;;;17.71;84.10;100272.97;4951943;28;20058;-70
2021/07/06 06:53:11;;;;;;;5.40;2.50;;;;;;;17.68;81.39;100270.47;4957573;28;20070;-69
2021/07/06 06:55:38;;;;;;;6.43;2.72;;;;;;;17.65;82.58;100273.38;4956233;28;20097;-69
2021/07/06 06:58:06;;;;;;;8.55;2.63;;;;;;;17.83;82.27;100273.94;4958713;28;20054;-68
2021/07/06 07:00:35;;;;;;;7.85;2.78;;;;;;;17.79;81.99;100274.25;4964350;28;20062;-68
2021/07/06 07:03:04;;;;;;;8.10;2.63;;;;;;;18.09;81.60;100282.00;4955469;28;20058;-69
2021/07/06 07:05:32;;;;;;;4.43;2.17;;;;;;;18.23;79.71;100281.00;4958657;28;20070;-68
2021/07/06 07:08:00;;;;;;;6.53;2.47;;;;;;;18.25;80.69;100279.94;4952541;28;20136;-68
2021/07/06 07:10:28;;;;;;;4.72;2.38;;;;;;;18.25;80.36;100277.25;4957645;28;20058;-68
2021/07/06 07:12:56;;;;;;;6.60;2.55;;;;;;;18.29;80.40;100278.72;4955566;28;20457;-69
2021/07/06 07:15:24;;;;;;;4.43;2.30;;;;;;;18.35;80.24;100273.84;4954887;28;20503;-69
2021/07/06 07:17:53;;;;;;;8.45;2.53;;;;;;;18.54;81.03;100278.75;4954103;28;20046;-69
2021/07/06 07:20:22;;;;;;;4.63;2.55;;;;;;;18.72;78.64;100277.38;4956110;28;20090;-69
2021/07/06 07:22:50;;;;;;;11.75;2.95;;;;;;;19.90;75.93;100278.25;4953069;28;20172;-69
2021/07/06 07:25:18;;;;;;;6.28;2.35;;;;;;;19.67;74.97;100281.88;4955169;28;20095;-69
2021/07/06 07:27:46;;;;;;;5.05;2.20;;;;;;;19.04;73.33;100288.47;4952920;28;20058;-69
2021/07/06 07:30:16;;;;;;;4.95;2.00;;;;;;;18.73;71.86;100291.75;4956149;28;20529;-69
2021/07/06 07:32:44;;;;;;;6.88;2.20;;;;;;;19.32;69.93;100283.66;4955575;28;20145;-69
2021/07/06 07:35:14;;;;;;;4.05;3.03;;;;;;;19.99;68.81;100275.75;4953364;28;20050;-69
2021/07/06 07:37:43;;;;;;;4.68;2.22;;;;;;;20.19;67.03;100282.28;4952622;28;20462;-69
2021/07/06 07:40:13;;;;;;;5.00;2.42;;;;;;;20.62;65.34;100289.59;4956288;28;20164;-69
2021/07/06 07:42:41;;;;;;;5.68;2.20;;;;;;;20.14;62.47;100279.94;4954996;28;20521;-69
2021/07/06 07:45:10;;;;;;;7.32;2.10;;;;;;;20.23;62.73;100283.78;4954566;28;20314;-69
2021/07/06 07:47:38;;;;;;;4.57;1.80;;;;;;;20.53;61.01;100281.25;4953270;28;20077;-69
2021/07/06 07:50:07;;;;;;;8.52;2.45;;;;;;;20.89;60.58;100278.31;4954593;28;20073;-69
2021/07/06 07:52:35;;;;;;;6.00;2.03;;;;;;;20.81;60.79;100287.09;4955792;28;20109;-69
2021/07/06 07:55:07;;;;;;;5.75;1.80;;;;;;;20.45;61.73;100278.31;4954116;28;20098;-69
2021/07/06 07:57:35;;;;;;;5.85;2.13;;;;;;;20.94;59.74;100276.06;4955472;28;20093;-69
2021/07/06 08:00:05;;;;;;;7.03;2.22;;;;;;;21.34;60.39;100278.09;4954366;28;20066;-69
2021/07/06 08:02:43;;;;;;;4.22;1.88;;;;;;;21.32;60.19;100277.38;4952866;28;20074;-69
2021/07/06 08:05:11;;;;;;;4.53;2.08;;;;;;;21.11;62.66;100288.19;4951606;28;20062;-69
2021/07/06 08:07:39;;;;;;;5.40;2.22;;;;;;;20.36;63.71;100289.03;4952910;28;20069;-69
2021/07/06 08:10:09;;;;;;;5.13;2.45;;;;;;;20.02;65.06;100298.03;4952701;28;20063;-69
2021/07/06 08:12:37;;;;;;;6.55;2.50;;;;;;;19.90;65.86;100299.91;4956367;28;20505;-68
2021/07/06 08:15:06;;;;;;;7.80;2.40;;;;;;;19.55;65.12;100299.94;4952540;28;20399;-69
2021/07/06 08:17:34;;;;;;;3.22;1.70;;;;;;;19.42;61.25;100291.91;4954909;28;20097;-68
2021/07/06 08:20:03;;;;;;;7.72;2.58;;;;;;;19.26;61.52;100304.91;4952927;28;20051;-69
2021/07/06 08:22:30;;;;;;;11.50;2.60;;;;;;;20.46;58.99;100304.41;4956676;28;20444;-69
2021/07/06 08:24:59;;;;;;;6.90;2.20;;;;;;;20.80;57.29;100301.63;4952458;28;20513;-69
2021/07/06 08:27:28;;;;;;;6.97;2.45;;;;;;;20.86;57.12;100314.69;4953513;28;20078;-69
2021/07/06 08:29:56;;;;;;;8.13;2.25;;;;;;;20.92;56.96;100307.03;4951750;28;20066;-69
2021/07/06 08:32:24;;;;;;;8.48;2.13;;;;;;;20.65;57.68;100313.75;4955211;28;20066;-69
2021/07/06 08:34:53;;;;;;;8.00;2.50;;;;;;;21.45;56.24;100309.72;4951298;28;20050;-69
2021/07/06 08:37:20;;;;;;;7.78;2.20;;;;;;;20.67;58.09;100309.06;4957294;28;20070;-69
2021/07/06 08:39:49;;;;;;;8.93;2.00;;;;;;;21.17;55.90;100314.81;4954432;28;20046;-70
2021/07/06 08:42:17;;;;;;;7.28;2.15;;;;;;;20.27;58.11;100317.75;4957816;28;20089;-69
2021/07/06 08:44:46;;;;;;;8.82;2.38;;;;;;;20.01;56.99;100326.13;4954223;28;20148;-69
2021/07/06 08:47:16;;;;;;;6.13;2.10;;;;;;;20.28;56.98;100311.34;4952964;28;20076;-69
2021/07/06 08:49:48;;;;;;;5.40;2.40;;;;;;;20.19;57.66;100320.19;4958108;28;20214;-69
2021/07/06 08:52:17;;;;;;;11.10;2.58;;;;;;;19.86;58.16;100330.91;4948699;28;20366;-68
2021/07/06 08:54:45;;;;;;;8.15;2.28;;;;;;;19.32;58.85;100335.03;4956450;28;20128;-68
2021/07/06 08:57:14;;;;;;;9.10;2.55;;;;;;;19.25;57.61;100341.91;4951626;28;20090;-68
2021/07/06 08:59:42;;;;;;;7.43;2.72;;;;;;;19.78;55.31;100330.63;4954675;28;20046;-70
2021/07/06 09:02:13;;;;;;;11.82;2.47;;;;;;;19.78;54.95;100334.22;4954052;28;20540;-69
2021/07/06 09:04:46;;;;;;;11.02;2.38;;;;;;;19.93;54.35;100329.41;4954873;28;20173;-69
2021/07/06 09:07:14;;;;;;;9.32;2.47;;;;;;;20.88;51.80;100334.41;4952771;28;20081;-69
2021/07/06 09:09:42;;;;;;;10.73;3.03;;;;;;;20.95;52.34;100344.75;4953047;28;20157;-69
2021/07/06 09:12:12;;;;;;;9.30;2.33;;;;;;;20.09;54.64;100347.16;4952596;28;20524;-69
2021/07/06 09:14:43;;;;;;;9.18;2.45;;;;;;;20.02;55.92;100346.78;4958832;28;20540;-69
2021/07/06 09:17:14;;;;;;;7.47;2.03;;;;;;;19.89;54.72;100340.63;4948489;28;20070;-69
2021/07/06 09:19:43;;;;;;;7.60;2.08;;;;;;;19.66;55.36;100345.09;4959051;28;20128;-69
2021/07/06 09:22:14;;;;;;;8.15;2.70;;;;;;;19.60;55.41;100363.53;4951670;28;20062;-69
2021/07/06 09:24:44;;;;;;;11.13;2.40;;;;;;;19.66;55.99;100358.63;4952576;28;20136;-69
2021/07/06 09:27:23;;;;;;;11.10;2.33;;;;;;;19.56;56.96;100358.47;4955329;28;20433;-69
2021/07/06 09:30:13;;;;;;;6.45;2.20;;;;;;;19.60;57.23;100374.38;4956417;28;20066;-69
2021/07/06 09:32:48;;;;;;;6.97;2.22;;;;;;;19.37;57.10;100365.31;4958178;28;20399;-70
2021/07/06 09:35:22;;;;;;;8.07;2.53;;;;;;;19.47;57.13;100362.75;4954177;28;20078;-69
2021/07/06 09:37:52;;;;;;;;;;;;;;;19.19;58.03;100364.88;4959604;28;20318;-69
2021/07/06 09:40:29;;;;;;;6.25;2.20;;;;;;;18.91;57.62;100367.94;4957885;28;19929;-69
2021/07/06 09:43:24;;;;;;;12.65;2.75;;;;;;;20.02;56.02;100376.56;4954802;28;20097;-69
2021/07/06 09:46:06;;;;;;;10.35;2.20;;;;;;;20.36;54.80;100352.19;4957231;28;20062;-69
2021/07/06 09:48:38;;;;;;;8.55;2.17;;;;;;;20.75;53.47;100358.09;4955795;28;20078;-70
2021/07/06 09:51:15;;;;;;;4.28;1.88;;;;;;;21.10;52.76;100353.44;4959622;28;20416;-70
2021/07/06 09:53:45;;;;;;;7.47;2.00;;;;;;;21.21;51.69;100362.38;4955565;28;20062;-70
2021/07/06 09:56:15;;;;;;;8.40;2.40;;;;;;;20.78;51.66;100349.72;4960050;28;20070;-70
2021/07/06 09:58:53;;;;;;;8.55;2.03;;;;;;;20.95;52.44;100348.31;4956577;28;20120;-69
2021/07/06 10:01:22;;;;;;;12.20;2.28;;;;;;;20.67;52.95;100365.97;4957471;28;20066;-70
2021/07/06 10:03:53;;;;;;;7.85;2.17;;;;;;;20.12;53.25;100368.56;4956380;28;20098;-70
2021/07/06 10:06:23;;;;;;;11.13;2.30;;;;;;;20.62;53.17;100382.66;4957539;28;20462;-70
2021/07/06 10:08:52;;;;;;;5.38;1.98;;;;;;;20.48;53.11;100385.56;4955222;28;20077;-68
2021/07/06 10:11:20;;;;;;;6.75;2.38;;;;;;;20.33;53.29;100382.28;4959759;28;20363;-69
2021/07/06 10:13:50;;;;;;;5.68;2.20;;;;;;;20.22;53.24;100393.94;4952754;28;20047;-69
2021/07/06 10:16:19;;;;;;;4.63;2.17;;;;;;;20.10;54.22;100393.06;4963515;28;20475;-69
2021/07/06 10:18:49;;;;;;;9.45;2.38;;;;;;;19.99;54.75;100417.44;4959064;28;20064;-69
2021/07/06 10:21:18;;;;;;;12.20;2.60;;;;;;;19.38;55.84;100409.47;4960878;28;20610;-69
2021/07/06 10:23:49;;;;;;;15.40;2.58;;;;;;;19.60;55.23;100414.09;4957541;28;20123;-69
2021/07/06 10:26:25;;;;;;;9.30;2.75;;;;;;;20.15;54.71;100411.66;4957716;28;20152;-69
2021/07/06 10:28:54;;;;;;;15.75;2.75;;;;;;;20.20;54.43;100414.03;4958433;28;20353;-69
2021/07/06 10:31:23;;;;;;;11.55;2.47;;;;;;;19.98;54.96;100434.66;4957526;28;20127;-69
2021/07/06 10:33:53;;;;;;;9.75;2.17;;;;;;;19.78;54.46;100428.06;4959531;28;20070;-69
2021/07/06 10:36:37;;;;;;;8.68;2.17;;;;;;;20.20;54.34;100425.72;4955488;28;20112;-70
2021/07/06 10:39:07;;;;;;;6.80;2.30;;;;;;;20.26;53.64;100421.66;4959396;28;20369;-69
2021/07/06 10:41:59;;;;;;;7.55;2.20;;;;;;;20.04;54.29;100436.00;4954942;28;20062;-69
2021/07/06 10:44:34;;;;;;;9.77;2.45;;;;;;;19.70;55.48;100441.31;4945753;28;20733;-68
2021/07/06 10:47:03;;;;;;;5.47;2.00;;;;;;;19.32;56.23;100440.53;4956251;28;20271;-69
2021/07/06 10:49:35;;;;;;;10.18;2.20;;;;;;;19.58;56.11;100459.34;4956296;28;20583;-69
2021/07/06 10:52:06;;;;;;;8.52;2.15;;;;;;;19.59;56.17;100437.56;4964406;28;20066;-70
2021/07/06 10:54:37;;;;;;;5.95;1.95;;;;;;;19.83;55.50;100443.97;4974990;28;20114;-72
2021/07/06 10:57:25;;;;;;;9.15;2.22;;;;;;;19.68;55.49;100444.16;4974656;28;20165;-71
2021/07/06 10:59:58;;;;;;;12.82;3.05;;;;;;;19.56;56.46;100459.47;4976262;28;20370;-71
2021/07/06 11:02:28;;;;;;;8.95;2.22;;;;;;;19.36;57.13;100454.72;4976623;28;20082;-70
2021/07/06 11:04:57;;;;;;;5.55;2.78;;;;;;;19.33;57.32;100446.81;4979383;28;20116;-71
2021/07/06 11:07:52;;;;;;;6.82;2.40;;;;;;;19.28;57.24;100430.06;4963507;28;20070;-71
2021/07/06 11:10:50;;;;;;;7.10;2.55;;;;;;;19.36;57.48;100458.28;4952944;28;20345;-71
2021/07/06 11:13:22;;;;;;;7.32;2.15;;;;;;;19.23;57.72;100452.91;4934145;28;20066;-71
2021/07/06 11:15:50;;;;;;;7.30;2.33;;;;;;;19.30;57.64;100458.72;4943345;28;20378;-70
2021/07/06 11:18:18;;;;;;;9.52;2.38;;;;;;;19.32;57.74;100466.72;4941801;28;20077;-71
2021/07/06 11:20:49;;;;;;;4.57;2.10;;;;;;;18.88;58.11;100462.75;4940052;28;20085;-70
2021/07/06 11:23:22;;;;;;;9.52;2.72;;;;;;;18.85;58.43;100467.41;4938931;28;20066;-70
2021/07/06 11:25:50;;;;;;;10.40;2.50;;;;;;;18.95;58.79;100458.63;4939431;28;20109;-71
2021/07/06 11:28:26;;;;;;;9.95;2.67;;;;;;;18.74;58.34;100480.78;4935823;28;20160;-71
2021/07/06 11:30:55;;;;;;;7.68;2.60;;;;;;;18.84;59.26;100473.78;4939709;28;20119;-70